Time;durP1;ratioP1;P1;durP2;ratioP2;P2;SDS_P1;SDS_P2;PMS_P1;PMS_P2;Temp;Humidity;BMP_temperature;BMP_pressure;BME280_temperature;BME280_humidity;BME280_pressure;Samples;Min_cycle;Max_cycle;Signal;HPM_P1;HPM_P2
2023/04/27 00:00:35;;;;;;;5.60;2.00;;;6.00;99.90;7.30;96956.00;;;;5100299;28;20199;-71
2023/04/27 00:03:24;;;;;;;2.37;1.70;;;6.00;99.90;7.20;96951.00;;;;5115242;28;20246;-71
2023/04/27 00:06:13;;;;;;;5.97;2.33;;;6.00;99.90;7.30;96950.00;;;;5117932;28;20209;-71
2023/04/27 00:09:03;;;;;;;2.80;2.00;;;6.10;99.90;7.40;96959.00;;;;5098934;28;20198;-72
2023/04/27 00:11:51;;;;;;;1.73;1.63;;;6.00;99.90;7.40;96946.00;;;;5100089;28;20242;-71
2023/04/27 00:14:40;;;;;;;2.40;1.83;;;6.00;99.90;7.60;96951.00;;;;5102329;28;20202;-71
2023/04/27 00:17:31;;;;;;;2.93;1.90;;;6.00;99.90;7.10;96940.00;;;;5105018;28;20195;-71
2023/04/27 00:20:19;;;;;;;2.43;2.23;;;6.00;99.90;7.10;96942.00;;;;5108412;28;20571;-71
2023/04/27 00:23:08;;;;;;;2.40;2.20;;;5.90;99.90;7.10;96942.00;;;;5107932;28;20585;-72
2023/04/27 00:25:57;;;;;;;5.15;2.40;;;5.90;99.90;6.60;96944.00;;;;5103116;28;20408;-72
2023/04/27 00:28:46;;;;;;;2.97;2.10;;;5.80;99.90;6.70;96935.00;;;;5105177;28;20194;-69
2023/04/27 00:31:35;;;;;;;3.00;2.70;;;5.80;99.90;6.70;96941.00;;;;5104120;28;20209;-68
2023/04/27 00:34:25;;;;;;;3.00;2.80;;;5.80;99.90;6.80;96938.00;;;;5104782;28;20207;-73
2023/04/27 00:37:14;;;;;;;2.57;2.17;;;5.70;99.90;6.90;96940.00;;;;5108643;28;20202;-69
2023/04/27 00:40:06;;;;;;;5.20;2.33;;;5.80;99.90;7.00;96937.00;;;;5101350;28;20268;-69
2023/04/27 00:42:55;;;;;;;2.40;1.80;;;5.80;99.90;6.90;96937.00;;;;5101597;28;20242;-71
2023/04/27 00:45:44;;;;;;;2.20;1.63;;;5.80;99.90;6.60;96936.00;;;;5105526;28;20214;-72
2023/04/27 00:48:33;;;;;;;2.87;2.37;;;5.80;99.90;6.50;96939.00;;;;5106231;28;20199;-71
2023/04/27 00:51:26;;;;;;;3.83;2.23;;;5.60;99.90;6.50;96939.00;;;;5110353;27;20243;-69
2023/04/27 00:54:19;;;;;;;5.47;2.37;;;5.60;99.90;6.50;96933.00;;;;5107296;28;20225;-72
2023/04/27 00:57:08;;;;;;;1.77;1.67;;;5.50;99.90;6.40;96943.00;;;;5103664;28;20203;-72
2023/04/27 00:59:57;;;;;;;2.10;1.90;;;5.50;99.90;6.40;96936.00;;;;5104094;28;20245;-65
2023/04/27 01:02:47;;;;;;;2.33;2.10;;;5.50;99.90;6.60;96939.00;;;;5096349;28;20700;-68
2023/04/27 01:05:37;;;;;;;2.50;2.30;;;5.50;99.90;6.80;96941.00;;;;5094396;28;20285;-73
2023/04/27 01:08:28;;;;;;;4.67;2.53;;;5.50;99.90;6.60;96949.00;;;;5108773;28;20186;-72
2023/04/27 01:11:17;;;;;;;3.83;2.00;;;5.60;99.90;6.30;96940.00;;;;5110675;28;20267;-66
2023/04/27 01:14:07;;;;;;;3.90;2.72;;;5.60;99.90;6.60;96944.00;;;;5108626;28;20399;-72
2023/04/27 01:16:55;;;;;;;4.22;2.50;;;5.50;99.90;6.60;96941.00;;;;5103285;28;20448;-73
2023/04/27 01:19:44;;;;;;;3.40;2.53;;;5.50;99.90;6.80;96942.00;;;;5106265;28;20692;-72
2023/04/27 01:22:33;;;;;;;6.30;2.87;;;5.60;99.90;6.90;96950.00;;;;5109659;28;20757;-71
2023/04/27 01:25:23;;;;;;;3.57;2.30;;;5.60;99.90;6.80;96954.00;;;;5104818;28;20230;-70
2023/04/27 01:28:12;;;;;;;3.77;2.70;;;5.60;99.90;7.00;96951.00;;;;5106311;28;20199;-72
2023/04/27 01:31:01;;;;;;;2.10;1.80;;;5.60;99.90;6.50;96951.00;;;;5105797;28;20198;-73
2023/04/27 01:33:49;;;;;;;4.13;2.33;;;5.60;99.90;6.80;96955.00;;;;5109829;28;20207;-71
2023/04/27 01:36:38;;;;;;;4.90;2.27;;;5.60;99.90;6.80;96953.00;;;;5101156;28;20198;-71
2023/04/27 01:39:27;;;;;;;2.57;2.37;;;5.60;99.90;6.70;96958.00;;;;5107901;28;20207;-70
2023/04/27 01:42:17;;;;;;;2.10;1.90;;;5.60;99.90;7.10;96955.00;;;;5106155;28;20315;-70
2023/04/27 01:45:08;;;;;;;2.60;2.33;;;5.60;99.90;7.00;96947.00;;;;5106770;28;20226;-70
2023/04/27 01:47:56;;;;;;;2.23;2.03;;;5.60;99.90;6.70;96961.00;;;;5104651;28;20267;-71
2023/04/27 01:50:45;;;;;;;3.37;2.57;;;5.60;99.90;6.90;96963.00;;;;5103436;28;20965;-71
2023/04/27 01:53:34;;;;;;;4.07;2.53;;;5.60;99.90;6.50;96959.00;;;;5097006;28;20263;-71
2023/04/27 01:56:23;;;;;;;9.03;2.43;;;5.50;99.90;6.60;96958.00;;;;5100404;28;20214;-71
2023/04/27 01:59:13;;;;;;;5.37;2.47;;;5.50;99.90;6.50;96968.00;;;;5096163;28;20211;-72
2023/04/27 02:02:02;;;;;;;4.17;2.67;;;5.50;99.90;6.50;96964.00;;;;5101875;28;20230;-70
2023/04/27 02:04:51;;;;;;;2.87;2.60;;;5.40;99.90;6.50;96966.00;;;;5099573;28;20207;-72
2023/04/27 02:07:39;;;;;;;2.57;2.37;;;5.40;99.90;6.50;96968.00;;;;5100080;28;20252;-71
2023/04/27 02:10:28;;;;;;;5.43;2.20;;;5.40;99.90;6.40;96968.00;;;;5099504;28;20256;-71
2023/04/27 02:13:17;;;;;;;1.83;1.63;;;5.30;99.90;6.50;96969.00;;;;5100676;28;20264;-72
2023/04/27 02:16:08;;;;;;;2.23;2.03;;;5.30;99.90;6.70;96971.00;;;;5107328;28;20198;-72
2023/04/27 02:18:57;;;;;;;3.37;2.20;;;5.30;99.90;6.60;96970.00;;;;5106892;28;20209;-72
2023/04/27 02:21:46;;;;;;;2.57;2.07;;;5.40;99.90;6.40;96966.00;;;;5101114;28;20226;-72
2023/04/27 02:24:36;;;;;;;3.50;2.00;;;5.30;99.90;6.40;96971.00;;;;5100608;28;20251;-72
2023/04/27 02:27:25;;;;;;;2.57;2.23;;;5.20;99.90;6.30;96972.00;;;;5103516;28;20244;-69
2023/04/27 02:30:14;;;;;;;2.20;2.00;;;5.20;99.90;6.30;96976.00;;;;5100949;28;20199;-71
2023/04/27 02:33:04;;;;;;;3.97;2.53;;;5.10;99.90;6.50;96971.00;;;;5103207;28;20253;-71
2023/04/27 02:35:53;;;;;;;2.57;2.37;;;5.10;99.90;6.50;96968.00;;;;5104897;28;20252;-71
2023/04/27 02:38:41;;;;;;;4.43;2.67;;;5.00;99.90;6.70;96972.00;;;;5099830;28;20251;-71
2023/04/27 02:41:32;;;;;;;2.50;2.30;;;5.20;99.90;6.70;96985.00;;;;5095609;27;20217;-71
2023/04/27 02:44:20;;;;;;;2.40;2.10;;;5.20;99.90;6.80;96976.00;;;;5103496;28;20206;-71
2023/04/27 02:47:10;;;;;;;2.40;2.23;;;5.30;99.90;6.80;96980.00;;;;5098851;27;20725;-71
2023/04/27 02:50:00;;;;;;;4.27;2.50;;;5.30;99.90;6.90;96980.00;;;;5101705;28;20204;-71
2023/04/27 02:52:48;;;;;;;2.30;2.10;;;5.30;99.90;6.70;96979.00;;;;5103487;28;20685;-71
2023/04/27 02:55:37;;;;;;;2.47;2.27;;;5.40;99.90;6.40;96974.00;;;;5107277;28;20206;-71
2023/04/27 02:58:26;;;;;;;2.20;1.83;;;5.30;99.90;6.60;96980.00;;;;5107274;28;20194;-71
2023/04/27 03:01:16;;;;;;;3.93;2.20;;;5.30;99.90;6.30;96974.00;;;;5106950;28;20632;-72
2023/04/27 03:04:05;;;;;;;3.97;2.70;;;5.20;99.90;6.20;96981.00;;;;5104842;28;20207;-71
2023/04/27 03:06:55;;;;;;;4.97;3.40;;;5.10;99.90;6.00;96984.00;;;;5107103;28;21023;-71
2023/04/27 03:09:43;;;;;;;3.97;2.90;;;5.00;99.90;6.10;96986.00;;;;5107477;28;20476;-71
2023/04/27 03:12:32;;;;;;;2.23;2.03;;;5.00;99.90;6.40;96990.00;;;;5108130;28;20206;-71
2023/04/27 03:15:21;;;;;;;2.77;1.80;;;5.00;99.90;6.40;96986.00;;;;5103709;28;20209;-72
2023/04/27 03:18:10;;;;;;;2.80;2.50;;;5.00;99.90;6.30;96983.00;;;;5107732;28;20244;-72
2023/04/27 03:21:06;;;;;;;2.57;2.30;;;5.00;99.90;6.30;96980.00;;;;5103709;28;20198;-71
2023/04/27 03:23:56;;;;;;;5.10;2.30;;;5.00;99.90;6.30;96997.00;;;;5103725;28;20194;-70
2023/04/27 03:26:45;;;;;;;2.80;2.60;;;5.00;99.90;6.10;96993.00;;;;5101681;28;20214;-70
2023/04/27 03:29:34;;;;;;;2.13;1.97;;;5.00;99.90;6.20;96989.00;;;;5091310;28;20264;-71
2023/04/27 03:32:23;;;;;;;3.30;2.97;;;4.90;99.90;6.30;96982.00;;;;5102812;28;20706;-71
2023/04/27 03:35:11;;;;;;;2.63;2.30;;;4.90;99.90;6.30;96988.00;;;;5106569;28;20280;-71
2023/04/27 03:38:00;;;;;;;3.53;2.40;;;5.00;99.90;6.20;96988.00;;;;5103038;28;20198;-71
2023/04/27 03:40:50;;;;;;;3.23;2.50;;;4.90;99.90;6.30;96982.00;;;;5102925;28;20194;-71
2023/04/27 03:43:39;;;;;;;6.40;3.00;;;4.90;99.90;6.30;96979.00;;;;5098442;28;20272;-71
2023/04/27 03:46:27;;;;;;;3.03;2.30;;;4.90;99.90;6.30;96991.00;;;;5106495;28;20271;-71
2023/04/27 03:49:16;;;;;;;3.20;2.50;;;4.90;99.90;6.10;96990.00;;;;5104779;28;20210;-71
2023/04/27 03:52:05;;;;;;;3.57;2.40;;;4.90;99.90;6.20;96990.00;;;;5107704;28;20214;-73
2023/04/27 03:54:54;;;;;;;5.47;3.03;;;4.90;99.90;6.20;96996.00;;;;5105412;28;20290;-71
2023/04/27 03:57:44;;;;;;;3.00;2.70;;;4.80;99.90;5.90;96981.00;;;;5111514;28;20190;-70
2023/04/27 04:00:32;;;;;;;7.37;3.07;;;4.80;99.90;5.40;96980.00;;;;5110425;28;20203;-72
2023/04/27 04:03:21;;;;;;;2.77;2.50;;;4.70;99.90;5.50;96986.00;;;;5111628;28;20237;-73
2023/04/27 04:06:10;;;;;;;5.20;2.37;;;4.60;99.90;5.70;96989.00;;;;5104952;28;20775;-71
2023/04/27 04:08:59;;;;;;;2.83;2.67;;;4.50;99.90;5.80;96991.00;;;;5107569;28;20197;-73
2023/04/27 04:11:48;;;;;;;3.70;3.40;;;4.60;99.90;5.80;97001.00;;;;5110266;28;20498;-72
2023/04/27 04:14:38;;;;;;;2.77;1.83;;;4.50;99.90;6.00;96998.00;;;;5111843;28;20220;-74
2023/04/27 04:17:27;;;;;;;3.10;2.80;;;4.60;99.90;6.10;97015.00;;;;5106771;28;20206;-72
2023/04/27 04:20:16;;;;;;;2.93;2.73;;;4.60;99.90;6.00;97016.00;;;;5103586;28;20205;-71
2023/04/27 04:23:05;;;;;;;2.60;2.40;;;4.60;99.90;6.00;97019.00;;;;5102200;28;20230;-71
2023/04/27 04:25:55;;;;;;;3.07;2.77;;;4.70;99.90;6.00;97016.00;;;;5104000;28;20701;-70
2023/04/27 04:28:44;;;;;;;3.70;3.00;;;4.80;99.90;5.90;97007.00;;;;5105157;27;20199;-71
2023/04/27 04:31:34;;;;;;;3.30;3.00;;;4.70;99.90;6.00;97004.00;;;;5100739;28;20192;-71
2023/04/27 04:34:23;;;;;;;2.73;2.20;;;4.70;99.90;6.30;97018.00;;;;5106506;27;20206;-70
2023/04/27 04:37:12;;;;;;;3.17;2.63;;;4.80;99.90;6.30;97013.00;;;;5104061;28;20522;-70
2023/04/27 04:40:00;;;;;;;6.90;2.90;;;4.80;99.90;6.10;97017.00;;;;5101671;28;20210;-70
2023/04/27 04:42:49;;;;;;;6.23;2.70;;;4.90;99.90;6.00;97009.00;;;;5103701;28;20217;-71
2023/04/27 04:45:38;;;;;;;3.00;2.50;;;4.90;99.90;6.00;97015.00;;;;5108123;28;20205;-70
2023/04/27 04:48:29;;;;;;;7.10;3.33;;;4.80;99.90;5.70;97010.00;;;;5107477;28;20272;-70
2023/04/27 04:51:17;;;;;;;3.67;2.80;;;4.80;99.90;5.80;97023.00;;;;5103884;28;20207;-70
2023/04/27 04:54:06;;;;;;;2.63;2.27;;;4.80;99.90;5.90;97015.00;;;;5109524;28;20241;-71
2023/04/27 04:56:55;;;;;;;3.10;2.50;;;4.80;99.90;5.90;97008.00;;;;5105275;27;20202;-70
2023/04/27 04:59:43;;;;;;;3.13;2.70;;;4.70;99.90;6.00;97017.00;;;;5104804;28;20847;-71
2023/04/27 05:02:32;;;;;;;5.60;3.13;;;4.80;99.90;6.20;97025.00;;;;5107720;28;20226;-70
2023/04/27 05:05:22;;;;;;;2.97;2.67;;;4.80;99.90;6.40;97022.00;;;;5107451;28;20194;-70
2023/04/27 05:08:11;;;;;;;6.73;3.20;;;4.90;99.90;6.40;97024.00;;;;5104739;28;20756;-70
2023/04/27 05:10:59;;;;;;;8.57;4.40;;;5.00;99.90;6.30;97026.00;;;;5102733;28;20225;-71
2023/04/27 05:13:48;;;;;;;10.43;5.70;;;5.00;99.90;6.20;97022.00;;;;5100842;28;20225;-70
2023/04/27 05:16:37;;;;;;;31.43;15.90;;;5.00;99.90;6.50;97029.00;;;;5106588;28;20195;-72
2023/04/27 05:19:29;;;;;;;15.93;8.60;;;5.10;99.90;6.70;97036.00;;;;5106118;28;20195;-70
2023/04/27 05:22:19;;;;;;;16.43;9.70;;;5.20;99.90;7.10;97038.00;;;;5104845;28;20218;-71
2023/04/27 05:25:08;;;;;;;10.83;6.43;;;5.30;99.90;7.30;97037.00;;;;5108692;28;20636;-71
2023/04/27 05:27:57;;;;;;;11.73;5.77;;;5.40;99.90;7.10;97037.00;;;;5101585;27;20219;-71
2023/04/27 05:30:46;;;;;;;6.63;3.47;;;5.50;99.90;7.20;97036.00;;;;5105628;27;20230;-71
2023/04/27 05:33:35;;;;;;;4.07;3.20;;;6.90;99.90;7.20;97034.00;;;;5104078;28;20789;-72
2023/04/27 05:36:23;;;;;;;2.73;2.47;;;5.70;99.90;7.30;97039.00;;;;5105076;27;20303;-71
2023/04/27 05:39:14;;;;;;;3.70;3.40;;;5.70;99.90;7.40;97044.00;;;;5100773;28;20258;-71
2023/04/27 05:42:02;;;;;;;2.93;2.70;;;5.80;99.90;7.40;97036.00;;;;5105391;28;20226;-71
2023/04/27 05:44:51;;;;;;;3.63;3.33;;;5.90;99.90;7.40;97047.00;;;;5095385;28;20198;-71
2023/04/27 05:47:40;;;;;;;4.83;2.87;;;5.90;99.90;7.70;97051.00;;;;5114715;27;20218;-71
2023/04/27 05:50:28;;;;;;;7.77;3.10;;;6.00;99.90;7.80;97045.00;;;;5111817;27;20198;-71
2023/04/27 05:53:17;;;;;;;3.17;2.87;;;6.10;99.90;8.00;97042.00;;;;5100295;28;20713;-71
2023/04/27 05:56:10;;;;;;;3.77;3.03;;;6.20;99.90;8.20;97046.00;;;;5104896;28;20609;-71
2023/04/27 05:58:59;;;;;;;4.03;3.33;;;6.30;99.90;8.40;97053.00;;;;5112173;27;20214;-71
2023/04/27 06:01:49;;;;;;;4.77;2.73;;;6.50;99.90;8.50;97042.00;;;;5114031;27;20217;-71
2023/04/27 06:04:38;;;;;;;6.80;3.10;;;6.60;99.90;8.60;97048.00;;;;5105130;27;20843;-71
2023/04/27 06:07:27;;;;;;;3.27;3.03;;;6.70;99.90;8.60;97044.00;;;;5108207;27;20233;-71
2023/04/27 06:10:16;;;;;;;6.83;3.10;;;6.80;99.90;8.70;97044.00;;;;5105311;27;20271;-71
2023/04/27 06:13:06;;;;;;;7.83;3.60;;;6.90;99.90;8.60;97050.00;;;;5105561;27;20216;-71
2023/04/27 06:15:55;;;;;;;7.07;3.33;;;7.00;99.90;9.00;97058.00;;;;5102405;28;20217;-71
2023/04/27 06:18:44;;;;;;;3.90;3.00;;;7.10;99.90;8.90;97053.00;;;;5101867;28;20198;-71
2023/04/27 06:21:33;;;;;;;4.10;3.70;;;7.20;99.90;9.20;97056.00;;;;5101525;28;20213;-71
2023/04/27 06:24:22;;;;;;;6.93;3.07;;;7.30;99.90;9.30;97059.00;;;;5095041;28;20860;-72
2023/04/27 06:27:12;;;;;;;4.37;3.33;;;7.50;99.90;9.20;97069.00;;;;5099942;28;20674;-71
2023/04/27 06:30:02;;;;;;;5.50;3.23;;;7.50;99.90;9.30;97067.00;;;;5101035;28;20195;-71
2023/04/27 06:32:52;;;;;;;7.17;3.43;;;7.60;99.90;9.70;97062.00;;;;5101411;28;20218;-71
2023/04/27 06:35:41;;;;;;;5.97;3.20;;;7.70;99.90;9.80;97066.00;;;;5104184;28;20195;-72
2023/04/27 06:38:30;;;;;;;3.50;3.10;;;7.70;99.90;9.90;97068.00;;;;5104195;28;20477;-71
2023/04/27 06:41:19;;;;;;;9.57;3.63;;;7.90;99.90;9.90;97065.00;;;;5096742;27;20194;-71
2023/04/27 06:44:08;;;;;;;4.57;3.33;;;8.00;99.90;10.10;97073.00;;;;5096939;28;20240;-71
2023/04/27 06:46:58;;;;;;;11.63;4.20;;;8.10;99.90;10.30;97060.00;;;;5105365;28;20191;-71
2023/04/27 06:49:46;;;;;;;4.10;3.63;;;8.20;99.90;10.60;97073.00;;;;5097092;28;20209;-71
2023/04/27 06:52:36;;;;;;;4.67;3.40;;;8.40;99.90;10.70;97076.00;;;;5106878;28;20225;-72
2023/04/27 06:55:25;;;;;;;5.57;2.70;;;10.00;99.90;10.90;97069.00;;;;5099367;28;20215;-71
2023/04/27 06:58:14;;;;;;;8.87;2.93;;;8.70;99.90;11.20;97077.00;;;;5103177;28;20211;-70
2023/04/27 07:01:02;;;;;;;4.03;3.20;;;8.90;99.90;11.60;97071.00;;;;5103062;28;20681;-71
2023/04/27 07:03:54;;;;;;;8.27;2.97;;;9.10;99.90;11.10;97066.00;;;;5105633;28;20198;-71
2023/04/27 07:06:42;;;;;;;7.47;3.13;;;9.30;99.90;11.20;97068.00;;;;5100392;28;20296;-71
2023/04/27 07:09:31;;;;;;;3.50;3.20;;;9.30;99.90;11.20;97069.00;;;;5099496;28;20226;-71
2023/04/27 07:12:20;;;;;;;6.00;3.03;;;9.40;99.90;11.60;97067.00;;;;5106016;28;20220;-71
2023/04/27 07:15:10;;;;;;;10.20;3.47;;;9.40;99.90;11.50;97065.00;;;;5103176;28;21033;-71
2023/04/27 07:17:58;;;;;;;2.80;2.60;;;9.50;99.90;11.60;97074.00;;;;5101482;28;20603;-71
2023/04/27 07:20:48;;;;;;;3.07;2.80;;;9.60;99.90;11.60;97077.00;;;;5105978;28;20698;-71
2023/04/27 07:23:37;;;;;;;3.53;2.70;;;9.60;99.90;11.70;97070.00;;;;5105828;28;20226;-72
2023/04/27 07:26:26;;;;;;;5.20;3.10;;;9.70;99.90;11.70;97058.00;;;;5104396;28;20191;-71
2023/04/27 07:29:16;;;;;;;3.63;2.93;;;9.70;99.90;11.90;97067.00;;;;5103677;28;20696;-71
2023/04/27 07:32:11;;;;;;;6.23;2.90;;;9.80;99.90;11.20;97057.00;;;;5103528;28;20295;-71
2023/04/27 07:34:59;;;;;;;4.90;2.80;;;9.80;99.90;12.00;97060.00;;;;5102806;28;20281;-72
2023/04/27 07:37:50;;;;;;;3.83;2.93;;;9.90;99.90;12.50;97049.00;;;;5099037;28;20199;-72
2023/04/27 07:40:39;;;;;;;7.50;3.27;;;10.10;99.90;12.70;97050.00;;;;5107844;28;20202;-72
2023/04/27 07:43:28;;;;;;;3.53;2.97;;;10.40;99.90;12.90;97051.00;;;;5105126;28;20227;-72
2023/04/27 07:46:18;;;;;;;5.33;3.70;;;10.60;99.90;12.70;97053.00;;;;5101187;28;20279;-72
2023/04/27 07:49:06;;;;;;;5.53;3.40;;;10.60;99.90;13.20;97061.00;;;;5105546;28;20214;-73
2023/04/27 07:51:56;;;;;;;4.57;3.23;;;10.80;99.90;13.40;97062.00;;;;5094522;28;20229;-72
2023/04/27 07:54:46;;;;;;;4.50;2.60;;;11.00;99.90;13.60;97066.00;;;;5093903;28;20199;-72
2023/04/27 07:57:34;;;;;;;4.80;3.27;;;11.20;99.90;13.20;97060.00;;;;5105626;28;20194;-72
2023/04/27 08:00:25;;;;;;;4.47;2.93;;;11.20;99.60;13.50;97056.00;;;;5105824;28;20212;-72
2023/04/27 08:03:14;;;;;;;4.87;3.20;;;11.40;98.70;13.40;97059.00;;;;5107268;28;20233;-71
2023/04/27 08:06:03;;;;;;;4.93;3.20;;;11.40;96.60;13.50;97054.00;;;;5102652;28;20202;-72
2023/04/27 08:08:52;;;;;;;4.80;2.90;;;11.50;97.30;14.30;97052.00;;;;5107007;28;20230;-72
2023/04/27 08:11:42;;;;;;;4.27;3.17;;;11.70;97.30;14.30;97055.00;;;;5103156;28;20242;-72
2023/04/27 08:14:31;;;;;;;3.60;2.60;;;11.90;96.10;14.60;97065.00;;;;5105535;28;20207;-72
2023/04/27 08:17:20;;;;;;;5.07;3.67;;;12.10;96.30;14.80;97055.00;;;;5097688;28;20203;-72
2023/04/27 08:20:11;;;;;;;7.03;3.40;;;12.30;96.10;14.30;97055.00;;;;5096379;28;20194;-71
2023/04/27 08:23:00;;;;;;;5.40;2.93;;;12.30;94.10;14.50;97056.00;;;;5102941;28;20219;-72
2023/04/27 08:25:48;;;;;;;7.30;2.87;;;12.50;94.70;14.50;97057.00;;;;5102335;28;20202;-72
2023/04/27 08:28:38;;;;;;;5.23;2.63;;;12.50;94.90;15.00;97048.00;;;;5100811;28;20230;-72
2023/04/27 08:31:28;;;;;;;6.20;3.47;;;12.70;94.50;14.60;97040.00;;;;5103387;28;20271;-72
2023/04/27 08:34:17;;;;;;;6.47;3.47;;;12.90;93.50;14.90;97044.00;;;;5105999;28;20191;-73
2023/04/27 08:37:05;;;;;;;7.67;2.90;;;12.80;93.10;15.50;97051.00;;;;5106744;28;20214;-72
2023/04/27 08:39:54;;;;;;;5.23;3.17;;;13.00;93.70;15.60;97041.00;;;;5100141;28;20205;-74
2023/04/27 08:42:56;;;;;;;4.60;3.47;;;13.20;94.00;15.50;97058.00;;;;5102189;28;20226;-74
2023/04/27 08:45:50;;;;;;;3.20;2.40;;;13.30;93.80;15.10;97052.00;;;;5092579;28;20201;-74
2023/04/27 08:48:39;;;;;;;7.00;3.67;;;13.20;92.70;15.60;97036.00;;;;5100945;28;20215;-73
2023/04/27 08:51:28;;;;;;;3.23;2.93;;;13.30;92.60;14.00;97026.00;;;;5094049;27;20198;-73
2023/04/27 08:54:17;;;;;;;5.07;2.80;;;13.30;91.80;15.40;97036.00;;;;5109605;28;20198;-73
2023/04/27 08:57:11;;;;;;;9.07;2.73;;;13.30;92.90;16.20;97039.00;;;;5109943;28;20218;-73
2023/04/27 09:00:03;;;;;;;4.40;2.90;;;;;16.60;97054.00;;;;5110682;28;20741;-73
2023/04/27 09:02:53;;;;;;;8.93;3.07;;;13.90;92.40;16.50;97033.00;;;;5110255;28;20223;-73
2023/04/27 09:05:47;;;;;;;5.93;3.57;;;14.20;91.60;17.00;97033.00;;;;5103804;28;20197;-72
2023/04/27 09:08:45;;;;;;;4.50;3.23;;;14.40;92.00;16.10;97017.00;;;;5102783;28;20218;-74
2023/04/27 09:11:36;;;;;;;3.87;3.20;;;14.50;91.00;17.00;97024.00;;;;5108509;28;20199;-72
2023/04/27 09:14:25;;;;;;;5.53;3.30;;;14.60;90.20;17.20;97018.00;;;;5108523;28;20201;-74
2023/04/27 09:17:14;;;;;;;2.87;2.53;;;14.90;87.30;17.40;97019.00;;;;5108012;28;20673;-73
2023/04/27 09:20:09;;;;;;;4.63;2.83;;;15.10;89.30;16.90;97017.00;;;;5108794;28;20275;-75
2023/04/27 09:22:58;;;;;;;5.43;4.07;;;15.10;90.10;16.90;97017.00;;;;5102373;28;20225;-73
2023/04/27 09:25:48;;;;;;;3.37;2.83;;;15.20;88.80;17.20;97019.00;;;;5099970;28;20198;-74
2023/04/27 09:28:40;;;;;;;9.20;3.37;;;15.30;87.00;16.60;97029.00;;;;5105097;28;20196;-72
2023/04/27 09:31:32;;;;;;;6.73;3.50;;;15.40;83.70;17.00;97005.00;;;;5098667;28;20203;-73
2023/04/27 09:34:21;;;;;;;2.90;2.70;;;15.20;85.50;17.60;97007.00;;;;5108433;28;20605;-74
2023/04/27 09:37:13;;;;;;;7.87;2.87;;;15.40;85.10;17.80;97032.00;;;;5109626;28;20198;-75
2023/04/27 09:40:03;;;;;;;7.07;4.10;;;15.60;84.80;17.60;96998.00;;;;5105250;28;20206;-74
2023/04/27 09:42:52;;;;;;;4.13;2.70;;;15.70;83.30;18.20;96998.00;;;;5108291;28;20616;-75
2023/04/27 09:45:41;;;;;;;7.07;3.43;;;15.80;81.00;19.00;96988.00;;;;5103584;28;20198;-74
2023/04/27 09:48:29;;;;;;;3.73;2.70;;;16.10;81.70;19.30;96981.00;;;;5109102;28;20251;-73
2023/04/27 09:51:18;;;;;;;3.87;2.90;;;16.40;83.80;18.80;96996.00;;;;5110069;27;20202;-74
2023/04/27 09:54:11;;;;;;;3.83;2.87;;;16.50;82.60;19.10;96980.00;;;;5105139;28;20240;-73
2023/04/27 09:57:14;;;;;;;7.77;3.20;;;16.60;76.90;19.90;96990.00;;;;5104852;28;20202;-73
2023/04/27 10:00:19;;;;;;;7.03;4.10;;;16.90;77.60;19.80;96979.00;;;;5102544;28;20289;-74
2023/04/27 10:03:22;;;;;;;5.10;2.90;;;17.20;79.30;20.10;97003.00;;;;5106567;28;20218;-73
2023/04/27 10:07:00;;;;;;;6.70;3.57;;;17.40;75.40;19.60;96968.00;;;;5099818;28;20309;-73
2023/04/27 10:09:51;;;;;;;4.77;3.17;;;17.40;75.00;19.70;96978.00;;;;5102015;28;20226;-73
2023/04/27 10:12:40;;;;;;;4.73;3.13;;;17.60;74.60;19.00;96965.00;;;;5100088;28;20241;-73
2023/04/27 10:15:30;;;;;;;5.93;2.87;;;17.60;71.50;19.70;96996.00;;;;5107112;28;20214;-73
2023/04/27 10:18:30;;;;;;;5.20;2.70;;;17.60;72.30;20.10;96955.00;;;;5106244;28;20575;-73
2023/04/27 10:21:19;;;;;;;3.60;3.10;;;17.80;74.50;21.10;96959.00;;;;5108355;28;20206;-69
2023/04/27 10:24:09;;;;;;;4.37;2.83;;;18.00;73.40;21.30;96953.00;;;;5108485;28;20209;-69
2023/04/27 10:27:05;;;;;;;5.37;2.80;;;18.30;73.50;20.80;96954.00;;;;5092452;28;20195;-70
2023/04/27 10:29:54;;;;;;;4.23;2.80;;;18.50;72.10;20.60;96980.00;;;;5097128;28;20709;-70
2023/04/27 10:32:52;;;;;;;5.77;3.37;;;18.40;71.60;21.10;96951.00;;;;5098157;28;20216;-73
2023/04/27 10:35:44;;;;;;;4.90;2.80;;;18.60;71.80;21.50;96979.00;;;;5104784;28;20195;-70
2023/04/27 10:38:32;;;;;;;3.37;2.40;;;18.70;71.10;18.40;96923.00;;;;5085334;28;20200;-67
2023/04/27 10:41:22;;;;;;;5.23;3.03;;;18.30;67.80;18.60;96967.00;;;;5090933;28;20199;-70
2023/04/27 10:44:24;;;;;;;4.77;3.53;;;17.70;68.50;16.90;96964.00;;;;5091743;28;20209;-73
2023/04/27 10:47:15;;;;;;;6.20;3.40;;;16.90;66.30;18.90;96970.00;;;;5102740;28;20217;-73
2023/04/27 10:50:06;;;;;;;5.07;2.90;;;16.80;70.90;19.80;96951.00;;;;5106670;28;20222;-73
2023/04/27 10:53:00;;;;;;;5.33;3.83;;;17.00;72.90;20.00;96977.00;;;;5105527;28;20229;-73
2023/04/27 10:55:56;;;;;;;4.37;2.80;;;17.20;72.40;19.50;96973.00;;;;5106154;28;20252;-72
2023/04/27 10:58:45;;;;;;;5.00;3.27;;;17.30;70.60;20.20;96916.00;;;;5098681;28;20207;-73
2023/04/27 11:01:37;;;;;;;3.40;3.03;;;17.50;70.80;20.20;96963.00;;;;5107850;28;20598;-72
2023/04/27 11:04:38;;;;;;;7.10;3.33;;;17.70;71.70;18.60;96972.00;;;;5107150;28;20195;-72
2023/04/27 11:07:28;;;;;;;4.53;3.17;;;17.70;68.90;18.40;96989.00;;;;5095716;28;20198;-72
2023/04/27 11:10:18;;;;;;;5.17;3.00;;;17.30;68.30;17.40;96992.00;;;;5105225;28;20264;-74
2023/04/27 11:13:12;;;;;;;3.53;2.80;;;16.80;68.60;16.40;96993.00;;;;5104940;28;20272;-66
2023/04/27 11:16:01;;;;;;;3.67;2.97;;;16.20;68.40;15.50;96983.00;;;;5096343;28;20288;-73
2023/04/27 11:18:51;;;;;;;5.73;3.20;;;15.40;70.60;15.40;96986.00;;;;5100974;28;20222;-73
2023/04/27 11:21:40;;;;;;;3.87;3.10;;;14.90;70.60;15.60;96979.00;;;;5106800;28;20555;-68
2023/04/27 11:24:29;;;;;;;4.20;2.83;;;14.50;74.90;15.60;96968.00;;;;5094118;28;20199;-68
2023/04/27 11:27:21;;;;;;;4.37;3.20;;;14.40;77.20;16.00;96956.00;;;;5107214;28;20612;-71
2023/04/27 11:30:21;;;;;;;4.30;2.97;;;14.40;75.50;15.70;96964.00;;;;5104638;28;20214;-71
2023/04/27 11:33:09;;;;;;;4.70;2.83;;;14.50;75.70;15.90;96966.00;;;;5104758;28;20253;-68
2023/04/27 11:36:00;;;;;;;3.07;2.80;;;14.40;74.30;15.30;96971.00;;;;5102916;28;20606;-67
2023/04/27 11:38:49;;;;;;;5.13;3.40;;;14.30;74.50;15.60;96972.00;;;;5101465;28;20201;-70
2023/04/27 11:41:38;;;;;;;3.37;2.90;;;14.20;77.20;15.00;96977.00;;;;5107124;28;20206;-67
2023/04/27 11:44:27;;;;;;;5.03;2.93;;;14.10;77.50;15.10;96978.00;;;;5092439;28;20199;-71
2023/04/27 11:47:18;;;;;;;3.50;2.63;;;14.00;76.60;15.70;96976.00;;;;5102542;28;20207;-70
2023/04/27 11:50:08;;;;;;;3.37;3.07;;;14.00;76.50;15.70;96982.00;;;;5103017;28;20230;-70
2023/04/27 11:53:01;;;;;;;4.67;3.30;;;13.90;77.90;15.70;96982.00;;;;5103361;27;20226;-68
2023/04/27 11:55:52;;;;;;;9.30;3.17;;;13.90;77.50;15.30;96986.00;;;;5100792;28;20198;-70
2023/04/27 11:58:41;;;;;;;2.90;2.70;;;13.80;78.10;15.00;96983.00;;;;5098300;28;20282;-72
2023/04/27 12:01:32;;;;;;;5.57;3.13;;;13.70;78.80;15.10;96984.00;;;;5104699;28;20221;-74
2023/04/27 12:04:25;;;;;;;3.87;3.13;;;13.70;78.80;15.20;96968.00;;;;5105085;28;20217;-69
2023/04/27 12:07:13;;;;;;;4.77;3.70;;;13.70;78.60;15.70;96954.00;;;;5104278;28;20213;-72
2023/04/27 12:10:04;;;;;;;12.10;2.97;;;13.90;79.40;16.50;96946.00;;;;5104746;28;20272;-69
2023/04/27 12:12:53;;;;;;;2.97;2.77;;;14.30;79.10;16.70;96954.00;;;;5106235;28;20644;-69
2023/04/27 12:15:42;;;;;;;3.00;2.53;;;14.60;76.40;18.00;96958.00;;;;5099641;28;20198;-71
2023/04/27 12:18:31;;;;;;;5.20;2.33;;;14.90;77.40;17.80;96961.00;;;;5102124;28;20203;-70
2023/04/27 12:21:20;;;;;;;5.80;2.90;;;15.20;75.90;18.30;96967.00;;;;5104441;28;20293;-70
2023/04/27 12:24:09;;;;;;;6.23;2.80;;;15.50;76.20;17.90;96975.00;;;;5104652;28;20205;-72
2023/04/27 12:27:00;;;;;;;4.10;2.53;;;15.70;75.10;18.20;96975.00;;;;5105647;28;20293;-72
2023/04/27 12:29:49;;;;;;;2.53;2.30;;;15.80;76.30;17.90;96976.00;;;;5107872;28;20214;-72
2023/04/27 12:32:38;;;;;;;7.50;2.60;;;16.00;76.10;18.00;96975.00;;;;5107470;28;20225;-72
2023/04/27 12:35:30;;;;;;;7.13;2.90;;;15.90;77.20;18.40;96966.00;;;;5106461;28;20582;-72
2023/04/27 12:38:19;;;;;;;3.50;2.63;;;16.00;76.90;18.70;96977.00;;;;5105153;28;20222;-71
2023/04/27 12:41:08;;;;;;;4.93;2.93;;;16.10;76.90;18.50;96977.00;;;;5110661;28;20207;-71
2023/04/27 12:43:58;;;;;;;3.93;3.00;;;16.20;76.70;18.60;96977.00;;;;5101981;28;20202;-70